createdAt,value
2023-01-04T00:00:24.707Z,1.31
2023-01-04T00:02:54.853Z,1.21
2023-01-04T00:05:23.527Z,1.15
2023-01-04T00:07:52.367Z,1.23
2023-01-04T00:10:21.287Z,1.29
2023-01-04T00:12:50.454Z,1.20
2023-01-04T00:15:18.759Z,1.21
2023-01-04T00:17:47.393Z,1.27
2023-01-04T00:20:18.135Z,1.28
2023-01-04T00:22:47.480Z,1.28
2023-01-04T00:25:16.225Z,1.17
2023-01-04T00:27:44.764Z,1.36
2023-01-04T00:30:13.979Z,1.10
2023-01-04T00:32:42.598Z,1.12
2023-01-04T00:35:27.133Z,1.15
2023-01-04T00:38:04.026Z,1.08
2023-01-04T00:40:33.092Z,1.05
2023-01-04T00:43:02.191Z,1.08
2023-01-04T00:45:30.942Z,0.95
2023-01-04T00:47:59.489Z,0.95
2023-01-04T00:50:28.572Z,0.91
2023-01-04T00:52:57.041Z,0.78
2023-01-04T00:55:27.319Z,0.82
2023-01-04T00:57:56.010Z,0.89
2023-01-04T01:00:25.069Z,1.05
2023-01-04T01:02:53.859Z,1.09
2023-01-04T01:05:22.833Z,1.11
2023-01-04T01:07:52.440Z,1.17
2023-01-04T01:10:21.304Z,1.18
2023-01-04T01:12:51.710Z,1.22
2023-01-04T01:15:20.453Z,1.13
2023-01-04T01:17:49.146Z,1.23
2023-01-04T01:20:17.915Z,1.32
2023-01-04T01:22:46.525Z,1.30
2023-01-04T01:25:15.161Z,1.27
2023-01-04T01:27:43.930Z,1.36
2023-01-04T01:30:15.277Z,1.26
2023-01-04T01:32:44.088Z,1.31
2023-01-04T01:35:12.859Z,1.29
2023-01-04T01:37:41.613Z,1.12
2023-01-04T01:40:11.740Z,1.21
2023-01-04T01:42:42.523Z,1.18
2023-01-04T01:45:27.171Z,1.29
2023-01-04T01:48:01.778Z,1.13
2023-01-04T01:50:34.357Z,1.20
2023-01-04T01:53:08.168Z,1.19
2023-01-04T01:55:38.369Z,1.30
2023-01-04T01:58:10.664Z,1.45
2023-01-04T02:00:42.290Z,1.33
2023-01-04T02:03:18.632Z,1.31
2023-01-04T02:05:51.788Z,1.28
2023-01-04T02:08:22.711Z,1.29
2023-01-04T02:10:51.572Z,1.28
2023-01-04T02:13:25.406Z,1.11
2023-01-04T02:16:11.622Z,1.31
2023-01-04T02:18:49.591Z,1.29
2023-01-04T02:21:24.329Z,1.24
2023-01-04T02:24:31.604Z,1.45
2023-01-04T02:27:31.138Z,1.63
2023-01-04T02:30:36.562Z,1.71
2023-01-04T02:33:29.837Z,1.66
2023-01-04T02:36:08.886Z,1.57
2023-01-04T02:38:52.367Z,1.64
2023-01-04T02:41:26.606Z,1.69
2023-01-04T02:44:17.452Z,1.65
2023-01-04T02:46:50.412Z,1.67
2023-01-04T02:49:38.149Z,1.72
2023-01-04T02:52:06.991Z,1.75
2023-01-04T02:54:36.342Z,1.71
2023-01-04T02:57:26.756Z,1.79
2023-01-04T03:00:14.988Z,1.85
2023-01-04T03:03:16.366Z,1.84
2023-01-04T03:06:10.065Z,1.81
2023-01-04T03:08:42.468Z,1.97
2023-01-04T03:11:27.194Z,1.94
2023-01-04T03:13:57.940Z,1.93
2023-01-04T03:16:27.742Z,1.93
2023-01-04T03:19:04.538Z,1.99
2023-01-04T03:21:35.270Z,1.97
2023-01-04T03:24:22.787Z,1.93
2023-01-04T03:27:13.747Z,1.97
2023-01-04T03:30:05.616Z,2.04
2023-01-04T03:32:59.701Z,1.98
2023-01-04T03:35:37.866Z,2.18
2023-01-04T03:38:30.524Z,2.12
2023-01-04T03:41:20.948Z,2.27
2023-01-04T03:44:16.769Z,2.19
2023-01-04T03:47:07.042Z,2.34
2023-01-04T03:49:41.506Z,2.50
2023-01-04T03:52:12.627Z,2.32
2023-01-04T03:54:45.931Z,2.42
2023-01-04T03:57:15.668Z,2.32
2023-01-04T03:59:49.640Z,2.44
2023-01-04T04:02:19.920Z,2.49
2023-01-04T04:05:05.591Z,2.43
2023-01-04T04:07:51.334Z,2.56
2023-01-04T04:10:21.465Z,2.53
2023-01-04T04:12:50.667Z,2.34
2023-01-04T04:15:20.480Z,2.47
2023-01-04T04:17:48.916Z,2.46
2023-01-04T04:20:17.612Z,2.44
2023-01-04T04:22:46.053Z,2.35
2023-01-04T04:25:14.451Z,2.28
2023-01-04T04:27:44.281Z,2.32
2023-01-04T04:30:12.958Z,2.38
2023-01-04T04:32:41.604Z,2.42
2023-01-04T04:35:10.656Z,2.36
2023-01-04T04:37:39.352Z,2.20
2023-01-04T04:40:28.967Z,2.38
2023-01-04T04:42:57.925Z,2.51
2023-01-04T04:45:26.707Z,2.57
2023-01-04T04:47:55.189Z,2.52
2023-01-04T04:50:23.776Z,2.52
2023-01-04T04:52:56.232Z,2.53
2023-01-04T04:55:25.249Z,2.47
2023-01-04T04:57:53.918Z,2.44
2023-01-04T05:00:23.949Z,2.43
2023-01-04T05:02:53.067Z,2.32
2023-01-04T05:05:21.843Z,2.43
2023-01-04T05:07:50.341Z,2.40
2023-01-04T05:10:19.091Z,2.48
2023-01-04T05:13:01.548Z,2.32
2023-01-04T05:15:35.327Z,2.45
2023-01-04T05:18:04.752Z,2.47
2023-01-04T05:20:34.189Z,2.40
2023-01-04T05:23:04.346Z,2.49
2023-01-04T05:25:33.638Z,2.41
2023-01-04T05:28:03.201Z,2.46
2023-01-04T05:30:51.054Z,2.51
2023-01-04T05:33:21.361Z,2.52
2023-01-04T05:35:50.445Z,2.42
2023-01-04T05:38:19.613Z,2.52
2023-01-04T05:40:49.587Z,2.55
2023-01-04T05:43:19.029Z,2.41
2023-01-04T05:45:52.404Z,2.47
2023-01-04T05:48:22.401Z,2.36
2023-01-04T05:50:51.074Z,2.22
2023-01-04T05:53:19.969Z,2.15
2023-01-04T05:55:50.321Z,2.03
2023-01-04T05:58:18.927Z,2.00
2023-01-04T06:00:48.151Z,1.96
2023-01-04T06:03:19.188Z,1.90
2023-01-04T06:05:51.320Z,1.89
2023-01-04T06:08:20.010Z,1.98
2023-01-04T06:10:55.369Z,1.99
2023-01-04T06:13:24.125Z,2.20
2023-01-04T06:15:52.990Z,2.19
2023-01-04T06:18:23.862Z,2.25
2023-01-04T06:20:52.835Z,2.32
2023-01-04T06:23:21.856Z,2.26
2023-01-04T06:25:50.644Z,2.31
2023-01-04T06:28:19.575Z,2.30
2023-01-04T06:30:48.592Z,2.46
2023-01-04T06:33:18.201Z,2.47
2023-01-04T06:35:55.556Z,2.45
2023-01-04T06:38:24.577Z,2.57
2023-01-04T06:40:53.433Z,2.55
2023-01-04T06:43:22.192Z,2.67
2023-01-04T06:45:51.397Z,2.65
2023-01-04T06:48:20.128Z,2.73
2023-01-04T06:50:52.753Z,2.77
2023-01-04T06:53:24.508Z,2.70
2023-01-04T06:55:53.404Z,2.74
2023-01-04T06:58:22.094Z,2.83
2023-01-04T07:00:53.143Z,2.72
2023-01-04T07:03:21.896Z,2.93
2023-01-04T07:05:52.510Z,2.89
2023-01-04T07:08:21.203Z,2.97
2023-01-04T07:10:49.970Z,3.16
2023-01-04T07:13:18.761Z,3.04
2023-01-04T07:15:47.435Z,3.03
2023-01-04T07:18:17.699Z,3.22
2023-01-04T07:20:46.508Z,3.22
2023-01-04T07:23:16.783Z,3.16
2023-01-04T07:25:45.290Z,3.13
2023-01-04T07:28:34.504Z,3.14
2023-01-04T07:31:09.001Z,3.22
2023-01-04T07:33:37.915Z,3.30
2023-01-04T07:36:08.018Z,3.38
2023-01-04T07:38:38.402Z,3.41
2023-01-04T07:41:07.280Z,3.48
2023-01-04T07:43:35.578Z,3.39
2023-01-04T07:46:04.268Z,3.39
2023-01-04T07:48:32.788Z,3.42
2023-01-04T07:51:02.455Z,3.45
2023-01-04T07:53:32.201Z,3.55
2023-01-04T07:56:02.607Z,3.44
2023-01-04T07:58:35.130Z,3.74
2023-01-04T08:01:11.082Z,3.77
2023-01-04T08:03:39.896Z,3.85
2023-01-04T08:06:09.631Z,3.72
2023-01-04T08:08:38.038Z,3.84
2023-01-04T08:11:10.748Z,3.80
2023-01-04T08:13:39.707Z,3.81
2023-01-04T08:16:08.729Z,3.83
2023-01-04T08:18:37.635Z,3.84
2023-01-04T08:21:08.537Z,3.95
2023-01-04T08:23:38.227Z,3.91
2023-01-04T08:26:10.509Z,3.83
2023-01-04T08:28:39.744Z,3.76
2023-01-04T08:31:11.222Z,3.96
2023-01-04T08:33:41.681Z,3.88
2023-01-04T08:36:12.334Z,3.94
2023-01-04T08:38:59.373Z,3.80
2023-01-04T08:41:57.436Z,3.95
2023-01-04T08:44:22.622Z,3.88
2023-01-04T08:46:52.065Z,3.94
2023-01-04T08:49:20.921Z,3.98
2023-01-04T08:51:50.783Z,4.05
2023-01-04T08:54:20.377Z,4.11
2023-01-04T08:56:50.555Z,4.08
2023-01-04T08:59:19.450Z,4.15
2023-01-04T09:01:48.051Z,4.09
2023-01-04T09:04:17.092Z,4.36
2023-01-04T09:06:46.355Z,4.30
2023-01-04T09:09:16.004Z,4.42
2023-01-04T09:11:44.684Z,4.45
2023-01-04T09:14:15.504Z,4.57
2023-01-04T09:16:44.410Z,4.59
2023-01-04T09:19:19.691Z,4.54
2023-01-04T09:21:50.449Z,4.67
2023-01-04T09:24:19.268Z,4.71
2023-01-04T09:26:48.562Z,4.70
2023-01-04T09:29:20.452Z,4.66
2023-01-04T09:31:49.634Z,4.76
2023-01-04T09:34:18.498Z,4.83
2023-01-04T09:36:48.220Z,4.98
2023-01-04T09:39:22.499Z,5.01
2023-01-04T09:41:58.717Z,5.09
2023-01-04T09:45:22.053Z,5.10
2023-01-04T09:47:42.251Z,5.10
2023-01-04T09:50:18.411Z,5.09
2023-01-04T09:52:55.935Z,5.22
2023-01-04T09:55:38.842Z,5.34
2023-01-04T09:58:18.497Z,5.42
2023-01-04T10:00:53.040Z,5.55
2023-01-04T10:03:27.662Z,5.68
2023-01-04T10:05:58.889Z,5.73
2023-01-04T10:08:27.790Z,5.95
2023-01-04T10:11:08.924Z,6.03
2023-01-04T10:14:07.249Z,6.14
2023-01-04T10:17:13.402Z,6.24
2023-01-04T10:23:00.395Z,6.33
2023-01-04T10:25:35.619Z,6.30
2023-01-04T10:28:19.913Z,6.25
2023-01-04T10:30:56.328Z,6.23
2023-01-04T10:33:32.376Z,6.21
2023-01-04T10:36:01.460Z,6.17
2023-01-04T10:38:36.902Z,6.24
2023-01-04T10:41:12.492Z,6.11
2023-01-04T10:44:11.968Z,6.11
2023-01-04T10:46:44.653Z,6.16
2023-01-04T10:49:20.183Z,6.23
2023-01-04T10:51:57.251Z,6.09
2023-01-04T10:54:35.262Z,6.20
2023-01-04T10:57:11.115Z,6.26
2023-01-04T10:59:45.838Z,6.25
2023-01-04T11:02:25.419Z,6.36
2023-01-04T11:05:03.401Z,6.44
2023-01-04T11:07:43.038Z,6.51
2023-01-04T11:10:16.743Z,6.49
2023-01-04T11:12:46.385Z,6.59
2023-01-04T11:15:15.859Z,6.60
2023-01-04T11:17:45.680Z,6.71
2023-01-04T11:20:16.153Z,6.68
2023-01-04T11:22:54.545Z,6.81
2023-01-04T11:25:35.580Z,6.85
2023-01-04T11:28:11.333Z,6.77
2023-01-04T11:31:01.815Z,6.96
2023-01-04T11:33:30.702Z,6.97
2023-01-04T11:36:02.063Z,7.04
2023-01-04T11:38:32.604Z,7.05
2023-01-04T11:41:06.021Z,7.14
2023-01-04T11:43:36.438Z,7.08
2023-01-04T11:46:08.446Z,7.18
2023-01-04T11:48:44.382Z,7.15
2023-01-04T11:51:39.942Z,7.14
2023-01-04T11:54:20.821Z,7.27
2023-01-04T11:57:08.967Z,7.31
2023-01-04T11:59:39.712Z,7.46
2023-01-04T12:02:58.367Z,7.49
2023-01-04T12:08:24.611Z,7.54
2023-01-04T12:10:53.172Z,7.63
2023-01-04T12:13:22.370Z,7.42
2023-01-04T12:16:01.938Z,7.59
2023-01-04T12:18:33.151Z,7.59
2023-01-04T12:21:04.012Z,7.50
2023-01-04T12:23:36.579Z,7.72
2023-01-04T12:26:05.658Z,7.84
2023-01-04T12:28:37.052Z,7.89
2023-01-04T12:31:32.439Z,7.93
2023-01-04T12:34:17.166Z,7.93
2023-01-04T12:37:05.335Z,8.02
2023-01-04T12:39:44.149Z,8.06
2023-01-04T12:42:22.309Z,8.07
2023-01-04T12:45:25.526Z,8.21
2023-01-04T12:48:12.840Z,8.21
2023-01-04T12:51:33.347Z,8.38
2023-01-04T12:54:04.580Z,8.41
2023-01-04T12:57:25.360Z,8.45
2023-01-04T12:59:58.801Z,8.43
2023-01-04T13:02:30.174Z,8.51
2023-01-04T13:05:53.379Z,8.47
2023-01-04T13:07:53.993Z,8.51
2023-01-04T13:10:30.467Z,8.47
2023-01-04T13:13:29.049Z,8.53
2023-01-04T13:16:12.027Z,8.49
2023-01-04T13:18:43.470Z,8.51
2023-01-04T13:21:16.470Z,8.50
2023-01-04T13:23:52.019Z,8.54
2023-01-04T13:26:39.746Z,8.54
2023-01-04T13:29:17.091Z,8.54
2023-01-04T13:31:52.375Z,8.67
2023-01-04T13:34:25.194Z,8.64
2023-01-04T13:37:22.742Z,8.64
2023-01-04T13:39:57.458Z,8.71
2023-01-04T13:42:29.484Z,8.63
2023-01-04T13:46:06.767Z,8.64
2023-01-04T13:48:39.130Z,8.57
2023-01-04T13:51:17.119Z,8.60
2023-01-04T13:53:57.416Z,8.53
2023-01-04T13:56:29.127Z,8.61
2023-01-04T13:58:59.510Z,8.60
2023-01-04T14:01:34.549Z,8.54
2023-01-04T14:04:06.561Z,8.47
2023-01-04T14:06:45.331Z,8.52
2023-01-04T14:09:21.639Z,8.51
2023-01-04T14:12:09.928Z,8.57
2023-01-04T14:14:50.451Z,8.49
2023-01-04T14:17:35.772Z,8.54
2023-01-04T14:20:06.582Z,8.56
2023-01-04T14:22:41.321Z,8.54
2023-01-04T14:25:34.257Z,8.61
2023-01-04T14:28:46.850Z,8.57
2023-01-04T14:31:23.895Z,8.63
2023-01-04T14:33:56.206Z,8.65
2023-01-04T14:36:29.440Z,8.62
2023-01-04T14:39:14.298Z,8.56
2023-01-04T14:41:45.068Z,8.56
2023-01-04T14:44:16.443Z,8.72
2023-01-04T14:46:48.419Z,8.63
2023-01-04T14:49:20.563Z,8.60
2023-01-04T14:51:52.903Z,8.56
2023-01-04T14:54:25.289Z,8.70
2023-01-04T14:56:54.700Z,8.64
2023-01-04T14:59:30.136Z,8.62
2023-01-04T15:02:00.985Z,8.60
2023-01-04T15:04:31.372Z,8.66
2023-01-04T15:07:01.925Z,8.59
2023-01-04T15:09:31.919Z,8.59
2023-01-04T15:12:03.160Z,8.52
2023-01-04T15:14:32.146Z,8.54
2023-01-04T15:17:00.846Z,8.47
2023-01-04T15:19:37.501Z,8.47
2023-01-04T15:22:07.374Z,8.47
2023-01-04T15:24:36.068Z,8.35
2023-01-04T15:27:06.238Z,8.31
2023-01-04T15:29:35.954Z,8.08
2023-01-04T15:32:08.195Z,7.87
2023-01-04T15:34:44.831Z,7.71
2023-01-04T15:37:23.416Z,7.52
2023-01-04T15:39:56.868Z,7.43
2023-01-04T15:42:49.854Z,7.32
2023-01-04T15:45:20.848Z,7.31
2023-01-04T15:47:50.136Z,7.19
2023-01-04T15:50:21.784Z,7.23
2023-01-04T15:52:50.606Z,7.25
2023-01-04T15:55:20.067Z,7.19
2023-01-04T15:57:49.104Z,7.28
2023-01-04T16:00:18.903Z,7.26
2023-01-04T16:02:49.331Z,7.20
2023-01-04T16:05:18.233Z,7.14
2023-01-04T16:07:49.173Z,7.08
2023-01-04T16:10:17.980Z,7.07
2023-01-04T16:12:54.705Z,7.06
2023-01-04T16:15:25.651Z,7.08
2023-01-04T16:17:53.984Z,7.06
2023-01-04T16:20:22.979Z,7.13
2023-01-04T16:22:52.833Z,7.04
2023-01-04T16:25:21.889Z,7.15
2023-01-04T16:27:50.900Z,7.15
2023-01-04T16:30:23.316Z,7.09
2023-01-04T16:32:57.092Z,7.15
2023-01-04T16:35:25.841Z,7.11
2023-01-04T16:37:59.690Z,7.17
2023-01-04T16:40:28.532Z,7.11
2023-01-04T16:42:57.201Z,7.04
2023-01-04T16:45:26.511Z,7.06
2023-01-04T16:47:57.507Z,7.06
2023-01-04T16:50:26.252Z,7.07
2023-01-04T16:52:57.428Z,7.00
2023-01-04T16:55:26.348Z,7.05
2023-01-04T16:57:55.138Z,7.15
2023-01-04T17:00:24.198Z,7.05
2023-01-04T17:02:52.546Z,7.13
2023-01-04T17:05:21.581Z,7.15
2023-01-04T17:07:55.100Z,7.15
2023-01-04T17:10:33.950Z,7.12
2023-01-04T17:13:03.115Z,7.04
2023-01-04T17:15:45.091Z,7.11
2023-01-04T17:18:24.499Z,7.04
2023-01-04T17:21:32.617Z,7.05
2023-01-04T17:23:59.208Z,7.14
2023-01-04T17:26:34.648Z,7.14
2023-01-04T17:29:04.354Z,7.04
2023-01-04T17:31:36.608Z,7.19
2023-01-04T17:34:05.620Z,7.12
2023-01-04T17:36:33.921Z,7.19
2023-01-04T17:39:02.555Z,7.17
2023-01-04T17:41:33.519Z,7.18
2023-01-04T17:44:03.923Z,7.16
2023-01-04T17:46:35.699Z,7.07
2023-01-04T17:49:27.536Z,7.10
2023-01-04T17:51:57.898Z,7.07
2023-01-04T17:54:27.151Z,7.10
2023-01-04T17:56:57.845Z,7.06
2023-01-04T17:59:26.143Z,7.13
2023-01-04T18:01:54.504Z,7.12
2023-01-04T18:04:23.094Z,7.12
2023-01-04T18:06:52.051Z,7.20
2023-01-04T18:09:24.416Z,7.28
2023-01-04T18:11:52.976Z,7.25
2023-01-04T18:14:22.903Z,7.18
2023-01-04T18:17:00.339Z,7.27
2023-01-04T18:19:31.200Z,7.29
2023-01-04T18:22:03.830Z,7.29
2023-01-04T18:24:36.877Z,7.29
2023-01-04T18:27:24.352Z,7.27
2023-01-04T18:29:57.025Z,7.27
2023-01-04T18:32:27.757Z,7.28
2023-01-04T18:34:56.665Z,7.29
2023-01-04T18:37:25.962Z,7.26
2023-01-04T18:39:54.120Z,7.22
2023-01-04T18:42:23.826Z,7.35
2023-01-04T18:44:52.828Z,7.28
2023-01-04T18:47:23.560Z,7.45
2023-01-04T18:49:52.355Z,7.41
2023-01-04T18:52:21.080Z,7.40
2023-01-04T18:54:49.860Z,7.39
2023-01-04T18:57:18.394Z,7.36
2023-01-04T18:59:50.680Z,7.36
2023-01-04T19:02:20.842Z,7.37
2023-01-04T19:04:51.328Z,7.43
2023-01-04T19:07:20.218Z,7.57
2023-01-04T19:09:49.146Z,7.55
2023-01-04T19:12:18.213Z,7.70
2023-01-04T19:14:47.484Z,7.84
2023-01-04T19:17:16.212Z,7.75
2023-01-04T19:19:46.182Z,7.79
2023-01-04T19:22:16.710Z,7.76
2023-01-04T19:24:45.101Z,7.65
2023-01-04T19:27:13.814Z,7.58
2023-01-04T19:29:43.202Z,7.79
2023-01-04T19:32:11.760Z,7.82
2023-01-04T19:34:40.359Z,7.78
2023-01-04T19:37:09.153Z,7.79
2023-01-04T19:39:40.097Z,7.78
2023-01-04T19:42:09.240Z,7.86
2023-01-04T19:44:39.315Z,7.87
2023-01-04T19:47:08.181Z,7.92
2023-01-04T19:49:37.624Z,7.89
2023-01-04T19:52:07.343Z,7.90
2023-01-04T19:54:39.735Z,8.00
2023-01-04T19:57:10.369Z,8.13
2023-01-04T19:59:39.323Z,8.16
2023-01-04T20:02:08.569Z,8.15
2023-01-04T20:04:37.565Z,8.12
2023-01-04T20:07:06.696Z,8.09
2023-01-04T20:09:35.464Z,8.17
2023-01-04T20:12:04.029Z,8.24
2023-01-04T20:14:34.163Z,8.19
2023-01-04T20:17:03.089Z,8.27
2023-01-04T20:19:31.907Z,8.17
2023-01-04T20:22:00.495Z,8.10
2023-01-04T20:24:29.180Z,8.28
2023-01-04T20:26:58.339Z,8.30
2023-01-04T20:29:27.005Z,8.22
2023-01-04T20:31:57.804Z,8.34
2023-01-04T20:34:26.736Z,8.28
2023-01-04T20:36:55.380Z,8.23
2023-01-04T20:39:24.688Z,8.23
2023-01-04T20:42:13.611Z,8.34
2023-01-04T20:44:42.403Z,8.22
2023-01-04T20:47:12.880Z,8.27
2023-01-04T20:49:41.674Z,8.23
2023-01-04T20:52:10.141Z,8.19
2023-01-04T20:54:38.758Z,8.29
2023-01-04T20:57:07.288Z,8.34
2023-01-04T20:59:36.010Z,8.37
2023-01-04T21:02:06.041Z,8.35
2023-01-04T21:04:36.920Z,8.28
2023-01-04T21:07:07.108Z,8.39
2023-01-04T21:09:35.634Z,8.34
2023-01-04T21:12:07.234Z,8.40
2023-01-04T21:14:38.803Z,8.35
2023-01-04T21:17:07.809Z,8.39
2023-01-04T21:19:38.927Z,8.36
2023-01-04T21:22:11.606Z,8.41
2023-01-04T21:24:40.371Z,8.46
2023-01-04T21:27:08.653Z,8.46
2023-01-04T21:29:37.888Z,8.37
2023-01-04T21:32:06.787Z,8.40
2023-01-04T21:34:38.730Z,8.50
2023-01-04T21:37:07.082Z,8.51
2023-01-04T21:39:35.730Z,8.36
2023-01-04T21:42:05.624Z,8.40
2023-01-04T21:44:34.427Z,8.33
2023-01-04T21:47:05.118Z,8.12
2023-01-04T21:49:33.926Z,8.19
2023-01-04T21:52:04.420Z,8.21
2023-01-04T21:54:33.108Z,8.15
2023-01-04T21:57:01.633Z,8.28
2023-01-04T21:59:30.267Z,8.37
2023-01-04T22:01:59.001Z,8.44
2023-01-04T22:04:27.489Z,8.48
2023-01-04T22:06:56.483Z,8.48
2023-01-04T22:09:26.982Z,8.49
2023-01-04T22:11:55.453Z,8.56
2023-01-04T22:14:24.284Z,8.60
2023-01-04T22:16:53.725Z,8.72
2023-01-04T22:19:23.590Z,8.70
2023-01-04T22:21:52.039Z,8.68
2023-01-04T22:24:20.662Z,8.82
2023-01-04T22:26:52.697Z,8.66
2023-01-04T22:29:22.076Z,8.79
2023-01-04T22:31:52.237Z,8.85
2023-01-04T22:34:20.775Z,8.93
2023-01-04T22:36:49.493Z,8.97
2023-01-04T22:39:18.181Z,8.90
2023-01-04T22:41:46.403Z,8.91
2023-01-04T22:44:16.258Z,8.95
2023-01-04T22:46:44.796Z,8.95
2023-01-04T22:49:13.356Z,9.06
2023-01-04T22:51:43.285Z,9.05
2023-01-04T22:54:12.498Z,8.97
2023-01-04T22:56:41.359Z,8.93
2023-01-04T22:59:10.889Z,8.87
2023-01-04T23:01:41.839Z,8.85
2023-01-04T23:04:10.548Z,8.81
2023-01-04T23:06:39.419Z,8.83
2023-01-04T23:09:10.709Z,8.90
2023-01-04T23:11:41.414Z,8.81
2023-01-04T23:14:13.139Z,8.91
2023-01-04T23:16:43.268Z,9.11
2023-01-04T23:19:13.963Z,9.09
2023-01-04T23:21:43.654Z,8.95
2023-01-04T23:24:14.892Z,8.93
2023-01-04T23:26:45.025Z,9.04
2023-01-04T23:29:14.247Z,9.04
2023-01-04T23:31:44.510Z,9.01
2023-01-04T23:34:15.153Z,9.08
2023-01-04T23:36:44.009Z,9.04
2023-01-04T23:39:15.906Z,8.98
2023-01-04T23:41:48.083Z,9.02
2023-01-04T23:46:53.917Z,8.89
2023-01-04T23:49:23.315Z,9.01
2023-01-04T23:51:52.322Z,9.05
2023-01-04T23:54:21.436Z,9.02
2023-01-04T23:56:50.211Z,9.03
2023-01-04T23:59:19.123Z,9.00
